This is the latest recevied weather packets stored in our database for station/object KB1YYC. If no packets are shown the sender has not sent any weather packets the latest 10 day(s).
| Time | Temp. | Humidity | Pressure | Rain* | Wind** | Luminosity | Snow |
|---|---|---|---|---|---|---|---|
| 1777392896 | 15.56° C | 49% | 1023.6 hPa | 0 mm | - | 760 W/m² | - |
| 1777392591 | 16.11° C | 48% | 1023.6 hPa | 0 mm | - | 758 W/m² | - |
| 1777392287 | 16.11° C | 49% | 1023.5 hPa | 0 mm | - | 753 W/m² | - |
| 1777391987 | 15° C | 52% | 1023.6 hPa | 0 mm | - | 756 W/m² | - |
| 1777391682 | 15.56° C | 51% | 1023.7 hPa | 0 mm | - | 750 W/m² | - |
| 1777391379 | 15.56° C | 49% | 1023.8 hPa | 0 mm | - | 750 W/m² | - |
| 1777391076 | 15.56° C | 48% | 1023.8 hPa | 0 mm | - | 748 W/m² | - |
| 1777390771 | 15.56° C | 50% | 1023.7 hPa | 0 mm | - | 742 W/m² | - |
| 1777390468 | 15.56° C | 50% | 1023.9 hPa | 0 mm | - | 739 W/m² | - |
| 1777390165 | 15° C | 50% | 1023.8 hPa | 0 mm | - | 739 W/m² | - |
| 1777389861 | 14.44° C | 51% | 1023.9 hPa | 0 mm | - | 733 W/m² | - |
| 1777389558 | 15° C | 51% | 1023.8 hPa | 0 mm | - | 728 W/m² | - |
| 1777389255 | 15° C | 53% | 1024 hPa | 0 mm | - | 724 W/m² | - |
| 1777388953 | 15° C | 51% | 1023.8 hPa | 0 mm | - | 720 W/m² | - |
| 1777388650 | 13.89° C | 53% | 1023.8 hPa | 0 mm | - | 712 W/m² | - |
| 1777388346 | 13.89° C | 54% | 1023.8 hPa | 0 mm | - | 708 W/m² | - |
| 1777388045 | 13.33° C | 58% | 1023.9 hPa | 0 mm | - | 702 W/m² | - |
| 1777387742 | 13.89° C | 59% | 1023.7 hPa | 0 mm | - | 689 W/m² | - |
| 1777387439 | 13.33° C | 59% | 1023.8 hPa | 0 mm | - | 684 W/m² | - |
| 1777387138 | 13.89° C | 59% | 1023.7 hPa | 0 mm | - | 673 W/m² | - |
| 1777386834 | 13.89° C | 57% | 1023.9 hPa | 0 mm | - | 668 W/m² | - |
| 1777386531 | 12.78° C | 60% | 1024.1 hPa | 0 mm | - | 663 W/m² | - |
| 1777386229 | 12.78° C | 58% | 1024.1 hPa | 0 mm | - | 654 W/m² | - |
| 1777385926 | 12.78° C | 58% | 1024.1 hPa | 0 mm | - | 644 W/m² | - |
| 1777385623 | 12.78° C | 57% | 1024.1 hPa | 0 mm | - | 635 W/m² | - |
* Rain latest hour (hover to see other rain measurements)
** Current wind speed in m/s (hover to see current wind gust speed)